Terminal Aerodrome Forecast
Issued by NWS Twin Cities, MN

Home | Current Version | Previous Version | Graphics & Text | Print | Product List | Glossary On
Versions: 1 2 3 4 5 6 7 8 9 10 11 12 13 14 15 16 17 18 19 20
000
FTUS43 KMPX 180251 AAB
TAFSTC
TAF AMD
KSTC 180251Z 1803/1824 31006KT P6SM SCT015 BKN035 BKN120
      TEMPO 1803/1805 4SM BR
     FM180500 34008KT P6SM BKN050
     FM180900 33010KT P6SM OVC080
     FM181300 33009KT P6SM FEW200
     FM181600 32013KT P6SM SCT030=

USA.gov is the U.S. government's official web portal to all federal, state and local government web resources and services.